Time;durP1;ratioP1;P1;durP2;ratioP2;P2;SDS_P1;SDS_P2;PMS_P1;PMS_P2;Temp;Humidity;BMP_temperature;BMP_pressure;BME280_temperature;BME280_humidity;BME280_pressure;Samples;Min_cycle;Max_cycle;Signal;HPM_P1;HPM_P2
2023/02/03 00:00:48;;;;;;;3.90;1.90;;;;;;;6.16;66.62;97354.91;5011599;28;20192;-68
2023/02/03 00:03:14;;;;;;;2.17;1.93;;;;;;;6.10;66.51;97355.84;5012171;28;20271;-68
2023/02/03 00:05:40;;;;;;;3.63;2.60;;;;;;;6.16;66.04;97349.69;5011690;28;20176;-68
2023/02/03 00:08:07;;;;;;;5.23;2.00;;;;;;;6.14;66.14;97349.72;5012242;28;20182;-68
2023/02/03 00:10:35;;;;;;;2.70;2.27;;;;;;;6.08;67.03;97346.31;5011500;28;20976;-68
2023/02/03 00:13:01;;;;;;;5.03;2.23;;;;;;;6.04;66.67;97340.25;5011837;28;20954;-68
2023/02/03 00:15:26;;;;;;;4.40;2.50;;;;;;;6.03;66.72;97346.38;5011904;28;20414;-67
2023/02/03 00:17:52;;;;;;;4.20;2.27;;;;;;;6.00;66.69;97338.59;5012046;28;20176;-67
2023/02/03 00:20:18;;;;;;;2.57;2.07;;;;;;;5.95;66.81;97348.16;5011693;28;20207;-67
2023/02/03 00:22:43;;;;;;;6.50;2.27;;;;;;;6.01;66.65;97350.72;5011733;28;20195;-67
2023/02/03 00:25:09;;;;;;;2.70;2.50;;;;;;;6.02;65.88;97341.16;5011671;28;20429;-69
2023/02/03 00:27:34;;;;;;;6.20;2.53;;;;;;;6.05;66.12;97341.16;5011903;28;20568;-67
2023/02/03 00:30:00;;;;;;;7.63;4.30;;;;;;;6.00;66.14;97338.59;5011730;28;20250;-68
2023/02/03 00:32:26;;;;;;;3.50;2.03;;;;;;;5.97;66.37;97338.59;5011600;28;20192;-68
2023/02/03 00:34:51;;;;;;;4.07;2.40;;;;;;;6.03;66.53;97348.13;5011974;28;20187;-68
2023/02/03 00:37:17;;;;;;;10.80;3.30;;;;;;;5.97;66.41;97338.59;5011738;28;20183;-67
2023/02/03 00:39:42;;;;;;;4.97;3.87;;;;;;;5.91;66.32;97346.47;5011394;28;20172;-68
2023/02/03 00:42:08;;;;;;;4.93;2.80;;;;;;;5.87;66.67;97350.84;5011543;28;20219;-67
2023/02/03 00:44:33;;;;;;;3.80;2.30;;;;;;;5.76;67.46;97349.22;5010210;28;20241;-67
2023/02/03 00:46:58;;;;;;;4.00;2.40;;;;;;;5.79;67.51;97350.06;5011693;28;20191;-68
2023/02/03 00:49:24;;;;;;;3.13;2.30;;;;;;;5.86;67.62;97337.84;5011703;28;20521;-67
2023/02/03 00:51:50;;;;;;;7.43;2.50;;;;;;;5.85;66.78;97336.94;5011335;28;20196;-68
2023/02/03 00:54:16;;;;;;;6.80;2.37;;;;;;;5.80;66.96;97349.16;5011490;28;20945;-68
2023/02/03 00:56:42;;;;;;;4.30;2.70;;;;;;;5.76;67.62;97339.66;5011772;28;20168;-67
2023/02/03 00:59:07;;;;;;;4.50;1.80;;;;;;;5.83;66.74;97340.44;5011398;28;20185;-67
2023/02/03 01:01:34;;;;;;;2.57;2.10;;;;;;;5.85;67.04;97357.78;5011344;28;20196;-67
2023/02/03 01:03:59;;;;;;;3.10;2.37;;;;;;;5.69;67.93;97367.50;5008845;28;20172;-66
2023/02/03 01:06:25;;;;;;;3.20;2.37;;;;;;;5.75;67.23;97370.94;5008457;28;20414;-66
2023/02/03 01:08:51;;;;;;;4.13;2.87;;;;;;;5.60;68.19;97375.41;5009485;28;20259;-67
2023/02/03 01:11:26;;;;;;;4.17;2.27;;;;;;;5.72;67.92;97375.28;5008017;28;20489;-67
2023/02/03 01:13:54;;;;;;;4.30;2.50;;;;;;;5.70;67.53;97384.84;5008246;28;20171;-69
2023/02/03 01:16:21;;;;;;;4.40;2.40;;;;;;;5.66;67.60;97385.75;5008406;28;20499;-67
2023/02/03 01:18:47;;;;;;;2.90;2.30;;;;;;;5.68;67.54;97386.59;5008334;28;20477;-67
2023/02/03 01:21:24;;;;;;;2.93;2.27;;;;;;;5.58;68.28;97377.16;5008130;28;21190;-67
2023/02/03 01:23:51;;;;;;;3.40;2.70;;;;;;;5.73;67.40;97373.53;5008150;28;20502;-68
2023/02/03 01:26:19;;;;;;;6.70;2.20;;;;;;;5.77;67.74;97371.78;5008014;28;20434;-68
2023/02/03 01:28:53;;;;;;;6.57;2.80;;;;;;;5.84;66.79;97374.31;5008005;28;20435;-67
2023/02/03 01:31:25;;;;;;;5.23;2.67;;;;;;;5.80;67.37;97366.53;5007762;28;20517;-67
2023/02/03 01:33:53;;;;;;;5.80;2.57;;;;;;;5.79;67.72;97367.41;5007995;28;20745;-67
2023/02/03 01:36:20;;;;;;;4.93;2.10;;;;;;;5.74;67.41;97364.88;5007709;28;21031;-67
2023/02/03 01:38:46;;;;;;;2.90;2.47;;;;;;;5.71;67.73;97363.13;5007849;28;20780;-67
2023/02/03 01:41:20;;;;;;;3.30;2.40;;;;;;;5.76;67.20;97344.00;5007512;28;20493;-67
2023/02/03 01:43:49;;;;;;;3.27;2.43;;;;;;;5.79;67.11;97323.13;5007564;28;20508;-67
2023/02/03 01:46:37;;;;;;;6.70;2.40;;;;;;;5.87;67.56;97308.28;5007856;28;20419;-67
2023/02/03 01:49:07;;;;;;;6.73;2.83;;;;;;;5.74;67.26;97312.78;5007518;28;20506;-67
2023/02/03 01:51:33;;;;;;;4.30;2.40;;;;;;;5.68;67.86;97316.28;5007205;28;20838;-66
2023/02/03 01:54:00;;;;;;;3.37;2.40;;;;;;;5.61;68.28;97314.63;5007385;28;20403;-66
2023/02/03 01:56:31;;;;;;;4.10;2.37;;;;;;;5.64;68.26;97326.75;5007404;28;20844;-68
2023/02/03 01:58:59;;;;;;;3.20;2.20;;;;;;;5.64;67.69;97345.84;5007347;28;21122;-68
2023/02/03 02:01:25;;;;;;;2.43;2.23;;;;;;;5.57;68.84;97344.16;5007092;28;20453;-67
2023/02/03 02:03:57;;;;;;;4.97;2.23;;;;;;;5.69;67.77;97345.78;5007127;28;20407;-67
2023/02/03 02:06:23;;;;;;;5.63;2.63;;;;;;;5.70;68.25;97356.22;5007312;28;20438;-67
2023/02/03 02:08:51;;;;;;;4.80;2.13;;;;;;;5.62;68.34;97339.81;5007357;28;20407;-67
2023/02/03 02:11:19;;;;;;;8.30;3.07;;;;;;;5.62;68.48;97337.19;5006939;28;20275;-67
2023/02/03 02:13:45;;;;;;;3.93;2.23;;;;;;;5.61;68.44;97342.41;5007357;28;20438;-67
2023/02/03 02:16:15;;;;;;;4.27;2.30;;;;;;;5.61;68.29;97337.19;5006158;28;20447;-66
2023/02/03 02:19:18;;;;;;;5.27;2.87;;;;;;;5.69;68.60;97343.19;5007233;28;20411;-68
2023/02/03 02:22:33;;;;;;;2.93;2.73;;;;;;;5.63;68.05;97343.25;5007049;28;20419;-66
2023/02/03 02:25:14;;;;;;;2.80;2.33;;;;;;;5.63;67.72;97328.50;4999404;28;20501;-69
2023/02/03 02:27:54;;;;;;;4.67;2.50;;;;;;;5.61;68.11;97335.47;5007300;28;20497;-67
2023/02/03 02:30:50;;;;;;;6.63;2.40;;;;;;;5.70;67.69;97335.38;5007188;28;21049;-66
2023/02/03 02:33:56;;;;;;;3.40;2.47;;;;;;;5.72;67.59;97338.81;5007243;28;20415;-67
2023/02/03 02:36:56;;;;;;;6.57;2.50;;;;;;;5.79;67.78;97313.59;4995067;28;20462;-68
2023/02/03 02:39:36;;;;;;;3.53;1.87;;;;;;;5.81;67.59;97305.75;5016164;28;20783;-68
2023/02/03 02:42:14;;;;;;;4.03;2.20;;;;;;;5.89;67.34;97306.53;5026449;28;20430;-68
2023/02/03 02:44:55;;;;;;;3.97;2.10;;;;;;;5.86;67.07;97299.63;5026623;28;20440;-67
2023/02/03 02:47:22;;;;;;;4.80;2.17;;;;;;;5.78;67.00;97300.56;5026515;28;20418;-68
2023/02/03 02:50:22;;;;;;;6.00;2.60;;;;;;;5.76;67.48;97291.91;5026231;28;20418;-67
2023/02/03 02:52:50;;;;;;;2.90;1.90;;;;;;;5.78;67.47;97295.38;5012492;28;20857;-66
2023/02/03 02:55:23;;;;;;;2.97;1.77;;;;;;;5.80;67.54;97289.25;5026297;28;20565;-68
2023/02/03 02:57:53;;;;;;;2.80;1.70;;;;;;;5.79;67.15;97289.25;5026068;28;20583;-67
2023/02/03 03:00:19;;;;;;;2.80;1.90;;;;;;;5.70;67.84;97288.50;5025984;28;20464;-70
2023/02/03 03:02:45;;;;;;;2.80;2.00;;;;;;;5.72;67.66;97291.09;5026168;28;21024;-67
2023/02/03 03:05:11;;;;;;;2.30;2.10;;;;;;;5.76;67.37;97273.69;5025990;28;20468;-68
2023/02/03 03:07:46;;;;;;;3.77;1.90;;;;;;;5.72;67.88;97275.47;5026097;28;20175;-67
2023/02/03 03:10:14;;;;;;;4.30;2.10;;;;;;;5.79;67.74;97277.13;5025694;28;20438;-67
2023/02/03 03:12:47;;;;;;;4.13;2.33;;;;;;;5.87;66.69;97257.06;5025883;28;20951;-67
2023/02/03 03:15:22;;;;;;;2.40;1.80;;;;;;;5.86;66.61;97257.09;5025905;28;20414;-67
2023/02/03 03:17:59;;;;;;;4.17;1.70;;;;;;;5.78;67.60;97258.91;5025883;28;20402;-67
2023/02/03 03:20:26;;;;;;;2.60;1.63;;;;;;;5.71;67.61;97271.97;5025218;28;20413;-67
2023/02/03 03:22:58;;;;;;;3.27;1.50;;;;;;;5.65;67.25;97284.22;5017885;28;20442;-67
2023/02/03 03:25:45;;;;;;;5.53;1.73;;;;;;;5.72;67.73;97289.34;5006104;28;20411;-67
2023/02/03 03:28:18;;;;;;;6.60;1.53;;;;;;;5.75;67.31;97283.25;5005747;28;20791;-68
2023/02/03 03:30:43;;;;;;;2.90;1.70;;;;;;;5.79;67.20;97287.56;5005608;28;20469;-68
2023/02/03 03:33:09;;;;;;;1.70;1.50;;;;;;;5.80;66.81;97291.00;5005674;28;20415;-67
2023/02/03 03:35:47;;;;;;;2.03;1.20;;;;;;;5.81;66.27;97282.31;5005961;28;20251;-67
2023/02/03 03:38:22;;;;;;;4.37;1.60;;;;;;;5.68;67.06;97286.78;5006575;28;20241;-67
2023/02/03 03:40:55;;;;;;;2.63;1.50;;;;;;;5.76;66.24;97302.31;5006760;28;20403;-67
2023/02/03 03:43:27;;;;;;;3.93;1.80;;;;;;;5.72;66.76;97304.97;5007073;28;20510;-68
2023/02/03 03:45:59;;;;;;;2.53;1.50;;;;;;;5.70;66.95;97306.72;5007055;28;20422;-68
2023/02/03 03:48:33;;;;;;;1.57;1.40;;;;;;;5.77;66.53;97291.06;5007203;28;20457;-68
2023/02/03 03:51:03;;;;;;;2.50;1.50;;;;;;;5.73;66.19;97282.38;5006284;28;20616;-68
2023/02/03 03:53:33;;;;;;;4.90;1.70;;;;;;;5.70;66.68;97282.44;5006627;28;20411;-68
2023/02/03 03:56:02;;;;;;;2.50;1.53;;;;;;;5.66;66.13;97285.94;5006583;28;20423;-67
2023/02/03 03:58:31;;;;;;;5.03;1.63;;;;;;;5.73;66.38;97304.09;5005500;28;20415;-67
2023/02/03 04:01:02;;;;;;;5.57;2.20;;;;;;;5.67;66.94;97325.00;5005422;28;20451;-68
2023/02/03 04:03:40;;;;;;;2.40;1.40;;;;;;;5.66;66.94;97328.47;5005616;28;20419;-68
2023/02/03 04:06:06;;;;;;;4.20;1.83;;;;;;;5.70;67.15;97332.78;5005754;28;20781;-68
2023/02/03 04:08:31;;;;;;;4.20;1.57;;;;;;;5.61;67.08;97335.47;5005819;28;20404;-67
2023/02/03 04:10:57;;;;;;;2.50;1.70;;;;;;;5.59;66.98;97347.63;5005316;28;20600;-67
2023/02/03 04:13:22;;;;;;;1.83;1.60;;;;;;;5.59;67.59;97347.63;5005637;28;20211;-67
2023/02/03 04:15:48;;;;;;;8.07;2.67;;;;;;;5.67;66.69;97353.63;5005405;28;20172;-68
2023/02/03 04:18:15;;;;;;;2.80;1.40;;;;;;;5.71;66.54;97351.84;5005388;28;20536;-68
2023/02/03 04:20:41;;;;;;;4.63;1.90;;;;;;;5.76;66.38;97350.06;5005333;28;20172;-68
2023/02/03 04:23:07;;;;;;;4.93;1.77;;;;;;;5.84;66.45;97360.44;5015148;28;20430;-68
2023/02/03 04:25:33;;;;;;;2.80;2.50;;;;;;;5.78;66.09;97363.09;5025059;28;20495;-67
2023/02/03 04:27:59;;;;;;;4.93;1.87;;;;;;;5.70;66.86;97365.75;5025106;28;20418;-68
2023/02/03 04:30:24;;;;;;;3.57;3.10;;;;;;;5.71;66.65;97364.88;5024895;28;20219;-68
2023/02/03 04:32:50;;;;;;;2.37;1.97;;;;;;;5.71;66.46;97359.66;5024816;28;20465;-68
2023/02/03 04:35:16;;;;;;;2.67;1.63;;;;;;;5.76;66.59;97357.88;5024819;28;20258;-68
2023/02/03 04:37:41;;;;;;;1.70;1.47;;;;;;;5.77;66.43;97349.22;5025190;28;20202;-67
2023/02/03 04:40:07;;;;;;;2.60;1.53;;;;;;;5.72;66.41;97343.19;5009808;28;20179;-68
2023/02/03 04:42:38;;;;;;;2.70;1.67;;;;;;;5.77;66.03;97348.34;5008918;28;20222;-67
2023/02/03 04:45:06;;;;;;;2.53;2.03;;;;;;;5.77;66.24;97330.97;5022281;28;20422;-67
2023/02/03 04:47:31;;;;;;;1.57;1.47;;;;;;;5.69;66.46;97328.44;5028611;28;20899;-67
2023/02/03 04:49:57;;;;;;;2.90;1.67;;;;;;;5.78;65.92;97309.25;5028330;28;20429;-68
2023/02/03 04:52:22;;;;;;;5.80;1.87;;;;;;;5.76;66.24;97316.22;5028278;28;20191;-68
2023/02/03 04:54:47;;;;;;;2.63;1.93;;;;;;;5.75;66.23;97326.66;5026838;28;21011;-68
2023/02/03 04:57:13;;;;;;;2.87;1.60;;;;;;;5.77;66.33;97330.97;5019912;28;20220;-67
2023/02/03 04:59:38;;;;;;;3.40;1.87;;;;;;;5.65;66.62;97331.09;5024540;28;20176;-68
2023/02/03 05:02:04;;;;;;;2.30;1.57;;;;;;;5.77;66.80;97315.34;5024363;28;20732;-67
2023/02/03 05:04:31;;;;;;;5.50;1.73;;;;;;;5.63;66.35;97325.03;5008493;28;20645;-67
2023/02/03 05:06:56;;;;;;;8.13;1.93;;;;;;;5.67;66.67;97319.78;5008533;28;20246;-68
2023/02/03 05:09:25;;;;;;;5.33;2.70;;;;;;;5.66;65.99;97323.25;5027883;28;20907;-67
2023/02/03 05:11:51;;;;;;;3.03;2.00;;;;;;;5.61;66.12;97318.97;5027821;28;20557;-67
2023/02/03 05:14:16;;;;;;;6.30;2.03;;;;;;;5.65;66.59;97310.28;5028037;28;20425;-69
2023/02/03 05:16:42;;;;;;;3.17;1.90;;;;;;;5.61;66.64;97314.63;5028032;28;20270;-67
2023/02/03 05:19:07;;;;;;;6.07;3.00;;;;;;;5.56;67.01;97312.97;5027798;28;20179;-67
2023/02/03 05:21:33;;;;;;;2.60;2.00;;;;;;;5.50;67.12;97308.66;5027730;28;20191;-67
2023/02/03 05:23:59;;;;;;;4.33;2.10;;;;;;;5.60;66.82;97286.88;5026216;28;20215;-67
2023/02/03 05:26:24;;;;;;;4.90;2.27;;;;;;;5.69;65.76;97278.97;5028033;28;20621;-67
2023/02/03 05:28:50;;;;;;;1.97;1.70;;;;;;;5.57;66.86;97297.28;5028122;28;20417;-67
2023/02/03 05:31:15;;;;;;;5.83;1.80;;;;;;;5.57;67.46;97323.34;5027767;28;20211;-67
2023/02/03 05:33:41;;;;;;;4.60;2.30;;;;;;;5.50;67.52;97299.13;5027813;28;20194;-67
2023/02/03 05:36:06;;;;;;;4.90;3.50;;;;;;;5.68;66.62;97289.41;5020090;28;20180;-68
2023/02/03 05:38:32;;;;;;;2.30;2.00;;;;;;;5.64;67.33;97295.50;5026155;28;20998;-68
2023/02/03 05:43:41;;;;;;;2.60;1.90;;;;;;;5.57;67.06;97293.84;5027401;28;20198;-67
2023/02/03 05:46:07;;;;;;;5.23;2.37;;;;;;;5.60;67.64;97291.19;5027729;28;20418;-67
2023/02/03 05:48:33;;;;;;;2.10;1.67;;;;;;;5.63;67.49;97281.63;5027503;28;20203;-67
2023/02/03 05:50:58;;;;;;;2.80;1.90;;;;;;;5.56;67.60;97282.56;5021069;28;20215;-67
2023/02/03 05:53:25;;;;;;;2.83;1.80;;;;;;;5.52;67.74;97304.28;5006366;28;20441;-68
2023/02/03 05:55:50;;;;;;;3.63;2.20;;;;;;;5.50;68.13;97317.34;5007515;28;20208;-67
2023/02/03 05:58:16;;;;;;;5.00;2.40;;;;;;;5.50;68.03;97326.88;5007601;28;20451;-68
2023/02/03 06:00:41;;;;;;;3.83;2.50;;;;;;;5.60;68.18;97332.84;5007138;28;20183;-67
2023/02/03 06:03:06;;;;;;;9.17;2.00;;;;;;;5.53;68.44;97339.88;5007369;28;20207;-69
2023/02/03 06:05:33;;;;;;;9.27;2.03;;;;;;;5.53;68.45;97342.50;5007042;28;20176;-67
2023/02/03 06:07:59;;;;;;;6.20;2.30;;;;;;;5.62;71.74;97333.72;5022385;28;20262;-68
2023/02/03 06:10:25;;;;;;;8.13;2.10;;;;;;;5.75;67.43;97327.50;5005032;28;20538;-67
2023/02/03 06:12:51;;;;;;;3.57;2.23;;;;;;;5.63;67.66;97332.84;5021750;28;20253;-67
2023/02/03 06:15:16;;;;;;;5.03;2.80;;;;;;;5.67;67.56;97318.91;5022210;28;20443;-67
2023/02/03 06:17:46;;;;;;;5.43;2.37;;;;;;;5.65;67.82;97308.53;5020742;28;20171;-69
2023/02/03 06:20:13;;;;;;;15.13;2.77;;;;;;;5.68;67.88;97315.44;5018172;28;20309;-68
2023/02/03 06:22:39;;;;;;;11.70;3.23;;;;;;;5.64;68.22;97318.94;5019648;28;20469;-68
2023/02/03 06:25:05;;;;;;;13.33;2.73;;;;;;;5.54;69.09;97299.94;5025714;28;20952;-67
2023/02/03 06:27:30;;;;;;;6.03;2.87;;;;;;;5.63;68.64;97312.03;5026034;28;20188;-69
2023/02/03 06:29:55;;;;;;;4.63;2.87;;;;;;;5.47;69.56;97311.28;5025593;28;20267;-67
2023/02/03 06:32:21;;;;;;;5.30;2.27;;;;;;;5.57;69.17;97297.28;5022307;28;20226;-67
2023/02/03 06:34:46;;;;;;;12.73;3.13;;;;;;;5.52;69.12;97305.16;5013619;28;21244;-68
2023/02/03 06:37:12;;;;;;;15.53;3.80;;;;;;;5.57;69.42;97338.97;5016166;28;20179;-69
2023/02/03 06:39:38;;;;;;;3.97;2.43;;;;;;;5.48;69.72;97334.72;5013368;28;20214;-67
2023/02/03 06:42:03;;;;;;;5.47;2.70;;;;;;;5.52;69.51;97330.31;5017914;28;20202;-68
2023/02/03 06:44:29;;;;;;;4.27;2.60;;;;;;;5.50;69.53;97326.88;5016111;28;20234;-67
2023/02/03 06:46:55;;;;;;;3.47;2.40;;;;;;;5.44;70.23;97333.00;5021232;28;20222;-67
2023/02/03 06:49:20;;;;;;;3.47;2.60;;;;;;;5.33;70.91;97339.19;5005658;28;20180;-67
2023/02/03 06:51:46;;;;;;;11.57;4.07;;;;;;;5.43;70.04;97340.81;5018388;28;20476;-68
2023/02/03 06:54:12;;;;;;;13.43;3.20;;;;;;;5.39;69.96;97344.34;5017246;28;20266;-68
2023/02/03 06:56:37;;;;;;;9.00;2.83;;;;;;;5.51;69.47;97336.44;5017188;28;20191;-68
2023/02/03 06:59:03;;;;;;;3.20;2.80;;;;;;;5.45;69.71;97326.06;5021800;28;20445;-68
2023/02/03 07:01:29;;;;;;;3.50;2.40;;;;;;;5.48;69.71;97344.25;5015382;28;20198;-68
2023/02/03 07:03:58;;;;;;;5.37;2.80;;;;;;;5.49;69.90;97349.44;5018302;28;20429;-68
2023/02/03 07:06:32;;;;;;;2.87;2.37;;;;;;;5.45;69.98;97331.25;5010904;28;20246;-68
2023/02/03 07:08:59;;;;;;;4.03;2.43;;;;;;;5.44;69.62;97347.78;5010390;28;20429;-67
2023/02/03 07:11:26;;;;;;;7.83;2.50;;;;;;;5.47;69.50;97339.94;5013438;28;20458;-67
2023/02/03 07:13:51;;;;;;;4.63;2.70;;;;;;;5.46;69.21;97339.06;5009525;28;20523;-69
2023/02/03 07:16:17;;;;;;;5.77;2.87;;;;;;;5.37;70.28;97333.94;5007347;28;21093;-68
2023/02/03 07:18:42;;;;;;;3.27;2.23;;;;;;;5.45;69.30;97333.88;5023037;28;20954;-68
2023/02/03 07:21:08;;;;;;;3.60;2.37;;;;;;;5.49;69.64;97312.16;5020710;28;20200;-67
2023/02/03 07:23:33;;;;;;;4.83;3.17;;;;;;;5.44;69.55;97295.72;5009449;28;20179;-67
2023/02/03 07:26:03;;;;;;;5.60;3.00;;;;;;;5.33;70.01;97300.13;5003388;28;20637;-67
2023/02/03 07:28:30;;;;;;;3.50;2.60;;;;;;;5.43;69.47;97292.25;5003007;28;20261;-68
2023/02/03 07:30:56;;;;;;;4.90;2.30;;;;;;;5.47;69.47;97285.25;5002320;28;20451;-68
2023/02/03 07:33:21;;;;;;;4.90;2.80;;;;;;;5.46;70.28;97293.97;5003268;28;20469;-68
2023/02/03 07:35:54;;;;;;;5.70;3.13;;;;;;;5.50;69.61;97293.03;5003807;28;20187;-68
2023/02/03 07:38:20;;;;;;;10.73;2.80;;;;;;;5.43;69.41;97294.84;5003707;28;20210;-68
2023/02/03 07:40:46;;;;;;;8.50;2.60;;;;;;;5.46;69.57;97297.41;5024319;28;20495;-68
2023/02/03 07:43:11;;;;;;;7.20;3.23;;;;;;;5.48;69.26;97289.56;5021417;28;20423;-68
2023/02/03 07:45:36;;;;;;;7.00;3.43;;;;;;;5.42;69.52;97298.31;5007284;28;20186;-68
2023/02/03 07:48:02;;;;;;;3.70;3.00;;;;;;;5.47;69.02;97296.53;5010867;28;20182;-68
2023/02/03 07:50:27;;;;;;;6.57;2.67;;;;;;;5.58;68.53;97298.19;5006257;28;20208;-68
2023/02/03 07:52:54;;;;;;;3.10;2.77;;;;;;;5.53;68.26;97295.63;5024729;28;20239;-68
2023/02/03 07:55:20;;;;;;;7.10;2.60;;;;;;;5.55;68.91;97290.38;5024547;28;20540;-67
2023/02/03 07:57:45;;;;;;;7.07;2.87;;;;;;;5.50;69.38;97286.09;5024649;28;20414;-67
2023/02/03 08:00:12;;;;;;;2.97;2.27;;;;;;;5.48;68.92;97297.38;5024500;28;20433;-68
2023/02/03 08:02:38;;;;;;;7.60;2.20;;;;;;;5.66;68.10;97302.41;5024273;28;20786;-67
2023/02/03 08:05:04;;;;;;;5.70;2.40;;;;;;;5.55;68.38;97298.19;5024643;28;20494;-68
2023/02/03 08:07:30;;;;;;;9.60;3.00;;;;;;;5.63;67.83;97297.25;5024381;28;20838;-67
2023/02/03 08:09:55;;;;;;;12.57;3.43;;;;;;;5.61;67.86;97304.22;5024553;28;20164;-68
2023/02/03 08:12:20;;;;;;;4.03;2.10;;;;;;;5.61;67.54;97305.97;5024563;28;20296;-68
2023/02/03 08:14:46;;;;;;;3.97;2.50;;;;;;;5.60;68.20;97312.03;5028570;28;20181;-70
2023/02/03 08:17:11;;;;;;;22.13;4.43;;;;;;;5.60;67.64;97318.13;5028714;28;20167;-68
2023/02/03 08:19:37;;;;;;;7.43;2.30;;;;;;;5.52;68.00;97325.13;5016562;28;20199;-68
2023/02/03 08:22:02;;;;;;;4.57;2.37;;;;;;;5.62;68.50;97344.13;5014335;28;20198;-68
2023/02/03 08:24:27;;;;;;;6.33;2.53;;;;;;;5.58;68.48;97366.75;5022134;28;20282;-68
2023/02/03 08:26:53;;;;;;;6.63;2.63;;;;;;;5.64;68.16;97344.97;5024561;28;20241;-69
2023/02/03 08:29:19;;;;;;;17.53;3.87;;;;;;;5.60;68.87;97356.28;5025402;28;20256;-68
2023/02/03 08:31:44;;;;;;;41.03;7.53;;;;;;;5.66;68.34;97351.91;5023042;28;20203;-68
2023/02/03 08:34:10;;;;;;;7.93;2.90;;;;;;;5.66;67.93;97351.03;5019886;28;21124;-69
2023/02/03 08:36:38;;;;;;;33.27;5.77;;;;;;;5.72;67.48;97353.59;5020548;28;20209;-68
2023/02/03 08:39:07;;;;;;;9.83;4.87;;;;;;;5.69;68.02;97351.00;5022801;28;20184;-68
2023/02/03 08:41:33;;;;;;;2.23;1.80;;;;;;;5.75;68.24;97339.69;5021014;28;20991;-68
2023/02/03 08:43:59;;;;;;;2.47;2.23;;;;;;;5.75;67.95;97334.47;5020982;28;20423;-68
2023/02/03 08:46:25;;;;;;;4.00;1.90;;;;;;;5.79;67.87;97337.03;5017756;28;20171;-68
2023/02/03 08:48:52;;;;;;;6.43;2.20;;;;;;;5.78;67.89;97322.25;5027743;28;20404;-68
2023/02/03 08:51:18;;;;;;;3.17;2.23;;;;;;;5.75;68.53;97324.91;5027555;28;20231;-68
2023/02/03 08:53:44;;;;;;;2.63;2.13;;;;;;;5.84;68.53;97332.63;5028336;28;20525;-68
2023/02/03 08:56:11;;;;;;;6.47;1.97;;;;;;;5.79;68.32;97324.00;5027907;28;20475;-71
2023/02/03 08:58:37;;;;;;;4.10;2.07;;;;;;;5.83;68.68;97327.44;5027584;28;20182;-68
2023/02/03 09:01:11;;;;;;;4.63;1.90;;;;;;;5.91;67.98;97343.88;5027551;28;20935;-69
2023/02/03 09:03:37;;;;;;;10.93;3.70;;;;;;;5.94;67.63;97339.50;5027171;28;20996;-69
2023/02/03 09:06:04;;;;;;;9.97;3.30;;;;;;;5.93;68.66;97350.78;5027709;28;20480;-68
2023/02/03 09:08:29;;;;;;;3.33;2.67;;;;;;;5.99;67.50;97367.25;5025865;28;20453;-69
2023/02/03 09:10:55;;;;;;;4.43;3.80;;;;;;;5.88;67.89;97373.41;5027335;28;20457;-68
2023/02/03 09:13:20;;;;;;;2.97;2.50;;;;;;;5.88;68.25;97373.41;5027524;28;20164;-68
2023/02/03 09:15:46;;;;;;;8.40;2.63;;;;;;;5.92;68.19;97367.28;5027436;28;20211;-69
2023/02/03 09:18:11;;;;;;;2.40;2.00;;;;;;;5.79;68.58;97355.25;5014483;28;20231;-69
2023/02/03 09:20:37;;;;;;;6.80;2.37;;;;;;;5.94;68.28;97341.25;5007365;28;20219;-68
2023/02/03 09:23:02;;;;;;;5.63;1.97;;;;;;;6.00;68.27;97346.41;5016804;28;20188;-69
2023/02/03 09:25:28;;;;;;;5.40;2.57;;;;;;;6.00;68.28;97356.81;5026574;28;20765;-69
2023/02/03 09:27:53;;;;;;;4.30;2.67;;;;;;;6.00;67.52;97350.72;5026039;28;20206;-68
2023/02/03 09:30:19;;;;;;;3.17;2.00;;;;;;;6.05;68.17;97339.41;5012782;28;20265;-69
2023/02/03 09:32:47;;;;;;;6.37;2.00;;;;;;;6.08;68.24;97341.97;5027160;28;20191;-69
2023/02/03 09:35:14;;;;;;;4.73;2.60;;;;;;;5.96;68.48;97329.06;5019977;28;20183;-69
2023/02/03 09:37:39;;;;;;;4.00;2.70;;;;;;;6.07;68.14;97341.97;5019580;28;20794;-69
2023/02/03 09:40:06;;;;;;;5.17;2.30;;;;;;;6.02;67.63;97336.81;5021363;28;20442;-68
2023/02/03 09:42:58;;;;;;;5.17;2.50;;;;;;;6.16;67.25;97323.63;5014395;28;20200;-68
2023/02/03 09:45:27;;;;;;;15.50;3.00;;;;;;;6.05;67.62;97325.50;5010253;28;20450;-68
2023/02/03 09:47:56;;;;;;;6.43;3.10;;;;;;;6.11;67.04;97321.06;5019996;28;20427;-68
2023/02/03 09:50:25;;;;;;;10.30;3.83;;;;;;;6.13;68.03;97326.28;5018167;28;20488;-68
2023/02/03 09:52:52;;;;;;;7.47;2.30;;;;;;;6.25;66.93;97315.69;5021157;28;20568;-68
2023/02/03 09:55:39;;;;;;;5.47;2.07;;;;;;;6.29;66.75;97319.16;5022147;28;20438;-70
2023/02/03 09:58:13;;;;;;;3.73;3.30;;;;;;;6.26;67.64;97332.19;5009291;28;20466;-69
2023/02/03 10:00:46;;;;;;;2.97;2.50;;;;;;;6.28;67.91;97327.81;5014971;28;20434;-68
2023/02/03 10:03:29;;;;;;;2.50;1.83;;;;;;;6.32;66.32;97325.16;5017151;28;20919;-69
2023/02/03 10:06:27;;;;;;;3.20;2.67;;;;;;;6.21;67.17;97328.78;5017068;28;20459;-69
2023/02/03 10:08:59;;;;;;;4.30;2.57;;;;;;;6.13;67.76;97329.75;5022854;28;20753;-68
2023/02/03 10:11:35;;;;;;;4.23;2.60;;;;;;;6.27;67.27;97336.53;5016204;28;20465;-68
2023/02/03 10:14:19;;;;;;;6.33;2.80;;;;;;;6.29;67.41;97313.94;5020849;28;20439;-69
2023/02/03 10:16:59;;;;;;;14.90;3.30;;;;;;;6.16;67.57;97328.84;5016526;28;20410;-69
2023/02/03 10:19:54;;;;;;;8.40;3.37;;;;;;;6.29;66.89;97334.78;5025885;28;20418;-69
2023/02/03 10:22:26;;;;;;;3.40;2.40;;;;;;;6.18;68.03;97326.22;5009559;28;20432;-69
2023/02/03 10:24:52;;;;;;;15.67;4.37;;;;;;;6.19;67.18;97327.94;5040856;28;20510;-68
2023/02/03 10:27:23;;;;;;;5.67;2.63;;;;;;;6.26;66.83;97316.56;5026364;28;20502;-67
2023/02/03 10:30:18;;;;;;;5.30;2.80;;;;;;;6.24;67.51;97308.78;5038924;28;20179;-68
2023/02/03 10:32:43;;;;;;;6.60;2.27;;;;;;;6.26;67.83;97308.72;5017634;28;20438;-68
2023/02/03 10:35:12;;;;;;;5.27;4.20;;;;;;;6.35;66.81;97296.47;5007676;28;21921;-69
2023/02/03 10:37:46;;;;;;;3.63;1.77;;;;;;;6.30;66.81;97305.22;5014379;28;20186;-68
2023/02/03 10:40:14;;;;;;;2.93;2.10;;;;;;;6.33;66.41;97310.38;5020430;28;21114;-70
2023/02/03 10:45:35;;;;;;;6.07;2.93;;;;;;;6.42;67.13;97312.03;5017328;28;20814;-69
2023/02/03 10:48:06;;;;;;;6.40;2.53;;;;;;;6.39;67.17;97323.34;5020434;28;20439;-69
2023/02/03 10:50:31;;;;;;;4.70;2.40;;;;;;;6.50;67.69;97307.59;5024356;28;20489;-71
2023/02/03 10:53:30;;;;;;;4.20;2.00;;;;;;;6.53;67.46;97317.97;5019668;28;20966;-69
2023/02/03 10:56:08;;;;;;;6.07;2.60;;;;;;;6.48;67.89;97328.47;5021735;28;20967;-69
2023/02/03 10:58:33;;;;;;;3.07;2.67;;;;;;;6.38;68.20;97313.81;5012524;28;20520;-70
2023/02/03 11:01:14;;;;;;;3.53;2.50;;;;;;;6.42;67.19;97325.91;5020949;28;20533;-69
2023/02/03 11:03:52;;;;;;;5.50;2.60;;;;;;;6.44;67.52;97308.50;5010739;28;20206;-68
2023/02/03 11:06:18;;;;;;;7.90;3.30;;;;;;;6.49;67.67;97305.84;5018988;28;20740;-69
2023/02/03 11:08:46;;;;;;;8.17;3.43;;;;;;;6.63;67.18;97319.56;5021754;28;20430;-69
2023/02/03 11:11:23;;;;;;;13.30;4.03;;;;;;;6.83;66.17;97293.22;5013983;28;20404;-73
2023/02/03 11:14:11;;;;;;;6.47;2.57;;;;;;;6.91;65.98;97288.72;5013175;28;20426;-69
2023/02/03 11:16:38;;;;;;;4.40;2.30;;;;;;;7.29;64.88;97278.56;5010120;28;20437;-69
2023/02/03 11:19:19;;;;;;;3.83;2.50;;;;;;;7.29;64.39;97283.78;5017103;28;20590;-69
2023/02/03 11:21:51;;;;;;;12.80;3.20;;;;;;;7.25;65.19;97287.31;5017660;28;20548;-66
2023/02/03 11:24:25;;;;;;;13.23;6.60;;;;;;;7.03;66.31;97294.66;5023242;28;20422;-68
2023/02/03 11:26:58;;;;;;;6.97;3.50;;;;;;;6.94;66.67;97288.66;5020163;28;20491;-68
2023/02/03 11:29:33;;;;;;;21.00;4.13;;;;;;;6.95;66.07;97289.56;5017269;28;20446;-68
2023/02/03 11:32:06;;;;;;;12.20;2.80;;;;;;;6.95;66.72;97277.38;5019575;28;21123;-69
2023/02/03 11:34:37;;;;;;;19.13;3.70;;;;;;;7.14;65.63;97277.06;5014640;28;20433;-68
2023/02/03 11:37:41;;;;;;;11.10;3.30;;;;;;;7.00;65.71;97275.53;5015844;28;20738;-68
2023/02/03 11:40:07;;;;;;;16.57;6.00;;;;;;;7.03;65.43;97263.34;5013627;28;20445;-68
2023/02/03 11:42:35;;;;;;;8.30;3.93;;;;;;;7.05;65.30;97269.41;5004909;28;21003;-69
2023/02/03 11:45:24;;;;;;;10.97;3.40;;;;;;;7.03;65.91;97253.75;5013756;28;20183;-69
2023/02/03 11:47:54;;;;;;;5.53;2.87;;;;;;;7.03;66.19;97245.06;5020513;28;20787;-68
2023/02/03 11:50:34;;;;;;;4.53;2.50;;;;;;;7.10;65.68;97250.16;5017872;28;20843;-69
2023/02/03 11:53:09;;;;;;;5.40;3.17;;;;;;;7.15;65.26;97247.47;5005482;28;20458;-68
2023/02/03 11:55:40;;;;;;;3.07;1.80;;;;;;;7.11;65.29;97244.06;5016968;28;20442;-68
2023/02/03 11:58:37;;;;;;;5.57;2.90;;;;;;;7.16;65.01;97236.16;5020428;28;20422;-69